Aeroporto :
LOGIN :

Iscrizione | Disclaimer

   EN    FR    IT 

 










Sommario :    VFR   VFR Marginale   IFR   IFR Intensivo   IFR Molto Intensivo
Visibilità : 
Base nubi : 
>= 8 km
>= 3000ft
5 / 8 km
1000 / 3000 ft
1500m / 5 km
500 / 1000 ft
800 / 1500m
200 / 500 ft
< 800m
< 200 ft
Simboli :   Temporali  Nebbia  Neve Forte  Precipitazioni Forti  Vento > 20 kt
SIGMETs :   Varie  Temporali  Ghiacco  Turbolenza  Onda orograficha  Ceneri Vulcaniche






- Altitudine del aeroporto : 80 ft
- Codice IATA : LPL


EGGP - Liverpool John Lennon

ULTIMO METAR :
  • 141250Z 29008KT 260V320 9999 SCT046 16/09 Q0997

METARs OBSOLETI :
  • 141220Z 26009G19KT 230V310 9999 -RA SCT024 SCT040 16/09 Q0997
  • 141150Z 24012KT 9999 FEW033 SCT041 FEW050TCU 15/08 Q0997
  • 141120Z 24009KT 200V260 9999 SCT034 FEW050TCU 16/10 Q0997
  • 141050Z 24012KT 9999 SCT020TCU SCT040 15/09 Q0997
  • 141020Z 23013KT 9999 SCT027 SCT040 15/09 Q0997
  • 140950Z 22011KT 190V250 9999 SCT027 SCT040 15/10 Q0997
  • 140920Z 22009KT 9999 SCT025 FEW045CB 14/11 Q0997
  • 140850Z 21010KT 9999 VCSH FEW025 13/11 Q0997
  • 140820Z 20011KT 9999 VCSH FEW009 BKN024 13/12 Q0997

TAF TAF EGGP
Valido dal 14 a 12 ore il 15 a 12 ore UTC


141055Z 1412/1512 24010KT 9999 SCT035
TEMPO 1412/1424 6000 SHRA
PROB30
TEMPO 1412/1422 4000 +SHRA
BECMG 1421/1424 16004KT
PROB30
TEMPO 1500/1508 7000 -SHRA
TEMPO 1508/1512 6000 SHRA RA
PROB30
TEMPO 1508/1512 4000 +SHRA BKN010 BKN022CB
ATIS : +44 151 907 2000 (option 5 or ext 5150)
Met : +44 871 750 5150



MetMap, La meteo Aeronautica in un colpo d'occhio ! - Copyright ORBIFLY Dicembre 2007 - Disclaimer

ORBIFLY MET'MAP TEAM :

Programmazione e sviluppo : Alexandra Zaïnal
Concezione : Baudouin d'Aumeries
Supporto tecnico e logistico : Manuel Goepfert
Aiuto : Marc-Olivier Méhu
Aiuto per la traduzione : Arnaldo La Scala




FONTI E CREDITI :

   NOAA